sensor_id;sensor_type;location;lat;lon;timestamp;temperature;humidity
75621;DHT22;64574;48.506;-2.750;2023-05-09T00:00:43;14.90;86.00
75621;DHT22;64574;48.506;-2.750;2023-05-09T00:03:09;14.90;85.90
75621;DHT22;64574;48.506;-2.750;2023-05-09T00:05:36;14.90;86.00
75621;DHT22;64574;48.506;-2.750;2023-05-09T00:08:01;14.80;86.20
75621;DHT22;64574;48.506;-2.750;2023-05-09T00:10:27;14.90;86.30
75621;DHT22;64574;48.506;-2.750;2023-05-09T00:12:53;14.90;86.10
75621;DHT22;64574;48.506;-2.750;2023-05-09T00:15:19;14.90;86.20
75621;DHT22;64574;48.506;-2.750;2023-05-09T00:17:44;14.80;86.30
75621;DHT22;64574;48.506;-2.750;2023-05-09T00:20:11;14.80;86.30
75621;DHT22;64574;48.506;-2.750;2023-05-09T00:22:40;14.90;86.40
75621;DHT22;64574;48.506;-2.750;2023-05-09T00:25:10;14.90;86.20
75621;DHT22;64574;48.506;-2.750;2023-05-09T00:27:35;14.80;86.40
75621;DHT22;64574;48.506;-2.750;2023-05-09T00:30:02;14.80;86.60
75621;DHT22;64574;48.506;-2.750;2023-05-09T00:32:28;14.80;86.70
75621;DHT22;64574;48.506;-2.750;2023-05-09T00:34:55;14.70;87.00
75621;DHT22;64574;48.506;-2.750;2023-05-09T00:37:20;14.70;87.00
75621;DHT22;64574;48.506;-2.750;2023-05-09T00:39:47;14.80;87.10
75621;DHT22;64574;48.506;-2.750;2023-05-09T00:42:13;14.70;87.00
75621;DHT22;64574;48.506;-2.750;2023-05-09T00:44:39;14.60;86.10
75621;DHT22;64574;48.506;-2.750;2023-05-09T00:47:05;14.50;86.00
75621;DHT22;64574;48.506;-2.750;2023-05-09T00:49:31;14.60;85.50
75621;DHT22;64574;48.506;-2.750;2023-05-09T00:51:57;14.40;85.60
75621;DHT22;64574;48.506;-2.750;2023-05-09T00:54:23;14.30;85.30
75621;DHT22;64574;48.506;-2.750;2023-05-09T00:56:50;14.30;85.50
75621;DHT22;64574;48.506;-2.750;2023-05-09T00:59:16;14.30;84.70
75621;DHT22;64574;48.506;-2.750;2023-05-09T01:01:42;14.30;85.40
75621;DHT22;64574;48.506;-2.750;2023-05-09T01:04:08;14.40;85.20
75621;DHT22;64574;48.506;-2.750;2023-05-09T01:11:52;14.30;85.10
75621;DHT22;64574;48.506;-2.750;2023-05-09T01:14:39;14.30;84.70
75621;DHT22;64574;48.506;-2.750;2023-05-09T01:17:32;14.30;85.20
75621;DHT22;64574;48.506;-2.750;2023-05-09T01:20:13;14.30;84.90
75621;DHT22;64574;48.506;-2.750;2023-05-09T01:22:47;14.30;84.90
75621;DHT22;64574;48.506;-2.750;2023-05-09T01:28:13;14.30;85.00
75621;DHT22;64574;48.506;-2.750;2023-05-09T01:30:44;14.20;84.50
75621;DHT22;64574;48.506;-2.750;2023-05-09T01:33:15;14.30;85.00
75621;DHT22;64574;48.506;-2.750;2023-05-09T01:35:44;14.30;84.80
75621;DHT22;64574;48.506;-2.750;2023-05-09T01:38:17;14.30;84.70
75621;DHT22;64574;48.506;-2.750;2023-05-09T01:40:46;14.20;84.60
75621;DHT22;64574;48.506;-2.750;2023-05-09T01:43:13;14.30;84.80
75621;DHT22;64574;48.506;-2.750;2023-05-09T01:45:42;14.30;84.50
75621;DHT22;64574;48.506;-2.750;2023-05-09T01:48:09;14.30;84.90
75621;DHT22;64574;48.506;-2.750;2023-05-09T01:50:36;14.30;84.50
75621;DHT22;64574;48.506;-2.750;2023-05-09T01:53:04;14.30;84.50
75621;DHT22;64574;48.506;-2.750;2023-05-09T01:55:32;14.30;84.60
75621;DHT22;64574;48.506;-2.750;2023-05-09T01:58:00;14.30;84.40
75621;DHT22;64574;48.506;-2.750;2023-05-09T02:00:28;14.30;84.30
75621;DHT22;64574;48.506;-2.750;2023-05-09T02:02:54;14.30;84.20
75621;DHT22;64574;48.506;-2.750;2023-05-09T02:05:25;14.30;84.30
75621;DHT22;64574;48.506;-2.750;2023-05-09T02:07:53;14.40;84.20
75621;DHT22;64574;48.506;-2.750;2023-05-09T02:10:21;14.30;84.00
75621;DHT22;64574;48.506;-2.750;2023-05-09T02:12:50;14.30;84.40
75621;DHT22;64574;48.506;-2.750;2023-05-09T02:15:15;14.40;84.00
75621;DHT22;64574;48.506;-2.750;2023-05-09T02:17:41;14.30;84.10
75621;DHT22;64574;48.506;-2.750;2023-05-09T02:20:07;14.30;84.20
75621;DHT22;64574;48.506;-2.750;2023-05-09T02:22:35;14.30;83.90
75621;DHT22;64574;48.506;-2.750;2023-05-09T02:25:01;14.30;84.10
75621;DHT22;64574;48.506;-2.750;2023-05-09T02:27:30;14.30;84.10
75621;DHT22;64574;48.506;-2.750;2023-05-09T02:29:57;14.30;83.70
75621;DHT22;64574;48.506;-2.750;2023-05-09T02:32:28;14.30;83.70
75621;DHT22;64574;48.506;-2.750;2023-05-09T02:34:57;14.30;83.60
75621;DHT22;64574;48.506;-2.750;2023-05-09T02:37:23;14.20;83.50
75621;DHT22;64574;48.506;-2.750;2023-05-09T02:39:50;14.10;83.50
75621;DHT22;64574;48.506;-2.750;2023-05-09T02:42:20;14.10;83.20
75621;DHT22;64574;48.506;-2.750;2023-05-09T02:44:46;14.10;83.50
75621;DHT22;64574;48.506;-2.750;2023-05-09T02:47:12;14.20;83.20
75621;DHT22;64574;48.506;-2.750;2023-05-09T02:49:38;14.10;82.90
75621;DHT22;64574;48.506;-2.750;2023-05-09T02:52:03;14.00;83.40
75621;DHT22;64574;48.506;-2.750;2023-05-09T02:54:29;14.10;83.30
75621;DHT22;64574;48.506;-2.750;2023-05-09T02:56:54;14.10;83.10
75621;DHT22;64574;48.506;-2.750;2023-05-09T02:59:20;14.00;83.00
75621;DHT22;64574;48.506;-2.750;2023-05-09T03:01:46;14.10;83.30
75621;DHT22;64574;48.506;-2.750;2023-05-09T03:04:11;14.10;83.40
75621;DHT22;64574;48.506;-2.750;2023-05-09T03:06:37;14.00;83.20
75621;DHT22;64574;48.506;-2.750;2023-05-09T03:09:03;14.10;83.10
75621;DHT22;64574;48.506;-2.750;2023-05-09T03:11:28;14.00;83.10
75621;DHT22;64574;48.506;-2.750;2023-05-09T03:13:55;13.90;83.20
75621;DHT22;64574;48.506;-2.750;2023-05-09T03:16:21;13.90;83.40
75621;DHT22;64574;48.506;-2.750;2023-05-09T03:18:47;14.00;83.30
75621;DHT22;64574;48.506;-2.750;2023-05-09T03:21:12;14.00;83.20
75621;DHT22;64574;48.506;-2.750;2023-05-09T03:23:38;13.90;83.10
75621;DHT22;64574;48.506;-2.750;2023-05-09T03:26:04;13.90;83.20
75621;DHT22;64574;48.506;-2.750;2023-05-09T03:28:29;13.90;83.40
75621;DHT22;64574;48.506;-2.750;2023-05-09T03:30:55;13.90;83.60
75621;DHT22;64574;48.506;-2.750;2023-05-09T03:33:21;13.90;83.00
75621;DHT22;64574;48.506;-2.750;2023-05-09T03:35:46;13.90;83.10
75621;DHT22;64574;48.506;-2.750;2023-05-09T03:38:12;13.90;82.80
75621;DHT22;64574;48.506;-2.750;2023-05-09T03:40:37;13.80;83.00
75621;DHT22;64574;48.506;-2.750;2023-05-09T03:43:03;13.70;83.40
75621;DHT22;64574;48.506;-2.750;2023-05-09T03:45:28;13.80;83.20
75621;DHT22;64574;48.506;-2.750;2023-05-09T03:47:54;13.80;83.40
75621;DHT22;64574;48.506;-2.750;2023-05-09T03:50:20;13.90;83.20
75621;DHT22;64574;48.506;-2.750;2023-05-09T03:52:46;13.80;83.30
75621;DHT22;64574;48.506;-2.750;2023-05-09T03:55:11;13.70;83.70
75621;DHT22;64574;48.506;-2.750;2023-05-09T03:57:37;13.90;83.30
75621;DHT22;64574;48.506;-2.750;2023-05-09T04:00:03;13.90;83.30
75621;DHT22;64574;48.506;-2.750;2023-05-09T04:02:32;13.90;83.40
75621;DHT22;64574;48.506;-2.750;2023-05-09T04:04:59;13.80;83.40
75621;DHT22;64574;48.506;-2.750;2023-05-09T04:07:25;13.90;83.70
75621;DHT22;64574;48.506;-2.750;2023-05-09T04:09:53;13.90;83.60
75621;DHT22;64574;48.506;-2.750;2023-05-09T04:12:20;13.90;83.60
75621;DHT22;64574;48.506;-2.750;2023-05-09T04:14:46;13.90;83.30
75621;DHT22;64574;48.506;-2.750;2023-05-09T04:17:11;13.90;83.60
75621;DHT22;64574;48.506;-2.750;2023-05-09T04:19:37;13.90;83.40
75621;DHT22;64574;48.506;-2.750;2023-05-09T04:22:03;13.90;83.70
75621;DHT22;64574;48.506;-2.750;2023-05-09T04:24:28;13.80;84.00
75621;DHT22;64574;48.506;-2.750;2023-05-09T04:26:54;13.90;83.90
75621;DHT22;64574;48.506;-2.750;2023-05-09T04:29:20;13.90;83.80
75621;DHT22;64574;48.506;-2.750;2023-05-09T04:31:45;13.80;84.00
75621;DHT22;64574;48.506;-2.750;2023-05-09T04:34:11;13.90;83.90
75621;DHT22;64574;48.506;-2.750;2023-05-09T04:36:36;13.90;83.80
75621;DHT22;64574;48.506;-2.750;2023-05-09T04:39:02;13.90;83.80
75621;DHT22;64574;48.506;-2.750;2023-05-09T04:41:29;13.90;83.50
75621;DHT22;64574;48.506;-2.750;2023-05-09T04:43:55;13.90;83.80
75621;DHT22;64574;48.506;-2.750;2023-05-09T04:46:21;13.80;84.00
75621;DHT22;64574;48.506;-2.750;2023-05-09T04:48:46;13.90;84.20
75621;DHT22;64574;48.506;-2.750;2023-05-09T04:51:12;13.90;84.20
75621;DHT22;64574;48.506;-2.750;2023-05-09T04:53:37;13.90;84.10
75621;DHT22;64574;48.506;-2.750;2023-05-09T04:56:03;13.80;84.20
75621;DHT22;64574;48.506;-2.750;2023-05-09T04:58:29;13.90;84.40
75621;DHT22;64574;48.506;-2.750;2023-05-09T05:00:55;13.80;84.20
75621;DHT22;64574;48.506;-2.750;2023-05-09T05:03:20;13.80;84.60
75621;DHT22;64574;48.506;-2.750;2023-05-09T05:05:46;13.70;84.40
75621;DHT22;64574;48.506;-2.750;2023-05-09T05:08:12;13.70;84.60
75621;DHT22;64574;48.506;-2.750;2023-05-09T05:10:37;13.80;84.40
75621;DHT22;64574;48.506;-2.750;2023-05-09T05:13:03;13.80;84.30
75621;DHT22;64574;48.506;-2.750;2023-05-09T05:15:28;13.90;84.30
75621;DHT22;64574;48.506;-2.750;2023-05-09T05:17:54;13.90;84.20
75621;DHT22;64574;48.506;-2.750;2023-05-09T05:20:20;13.90;84.30
75621;DHT22;64574;48.506;-2.750;2023-05-09T05:22:45;13.90;84.20
75621;DHT22;64574;48.506;-2.750;2023-05-09T05:25:11;14.00;84.10
75621;DHT22;64574;48.506;-2.750;2023-05-09T05:27:37;13.90;83.90
75621;DHT22;64574;48.506;-2.750;2023-05-09T05:30:03;14.00;84.10
75621;DHT22;64574;48.506;-2.750;2023-05-09T05:32:29;13.90;83.90
75621;DHT22;64574;48.506;-2.750;2023-05-09T05:34:55;13.90;84.00
75621;DHT22;64574;48.506;-2.750;2023-05-09T05:37:21;14.00;84.00
75621;DHT22;64574;48.506;-2.750;2023-05-09T05:39:47;14.00;83.80
75621;DHT22;64574;48.506;-2.750;2023-05-09T05:42:13;14.10;84.00
75621;DHT22;64574;48.506;-2.750;2023-05-09T05:44:38;14.00;83.80
75621;DHT22;64574;48.506;-2.750;2023-05-09T05:47:04;14.10;83.60
75621;DHT22;64574;48.506;-2.750;2023-05-09T05:49:30;14.00;83.50
75621;DHT22;64574;48.506;-2.750;2023-05-09T05:51:56;13.90;83.30
75621;DHT22;64574;48.506;-2.750;2023-05-09T05:54:21;13.90;83.90
75621;DHT22;64574;48.506;-2.750;2023-05-09T05:56:47;14.00;83.70
75621;DHT22;64574;48.506;-2.750;2023-05-09T05:59:12;14.00;83.70
75621;DHT22;64574;48.506;-2.750;2023-05-09T06:01:38;14.10;83.60
75621;DHT22;64574;48.506;-2.750;2023-05-09T06:04:03;14.10;83.40
75621;DHT22;64574;48.506;-2.750;2023-05-09T06:06:29;14.10;83.40
75621;DHT22;64574;48.506;-2.750;2023-05-09T06:08:55;14.10;83.20
75621;DHT22;64574;48.506;-2.750;2023-05-09T06:11:22;14.10;83.40
75621;DHT22;64574;48.506;-2.750;2023-05-09T06:13:48;14.10;83.40
75621;DHT22;64574;48.506;-2.750;2023-05-09T06:16:13;14.10;83.50
75621;DHT22;64574;48.506;-2.750;2023-05-09T06:18:39;14.20;83.50
75621;DHT22;64574;48.506;-2.750;2023-05-09T06:21:08;14.20;83.30
75621;DHT22;64574;48.506;-2.750;2023-05-09T06:23:34;14.30;83.00
75621;DHT22;64574;48.506;-2.750;2023-05-09T06:26:04;14.10;82.80
75621;DHT22;64574;48.506;-2.750;2023-05-09T06:28:29;14.10;83.10
75621;DHT22;64574;48.506;-2.750;2023-05-09T06:30:55;14.10;82.70
75621;DHT22;64574;48.506;-2.750;2023-05-09T06:33:21;14.10;83.00
75621;DHT22;64574;48.506;-2.750;2023-05-09T06:35:46;14.10;83.10
75621;DHT22;64574;48.506;-2.750;2023-05-09T06:38:12;14.20;83.00
75621;DHT22;64574;48.506;-2.750;2023-05-09T06:40:38;14.20;83.00
75621;DHT22;64574;48.506;-2.750;2023-05-09T06:43:03;14.10;83.20
75621;DHT22;64574;48.506;-2.750;2023-05-09T06:45:29;14.10;83.30
75621;DHT22;64574;48.506;-2.750;2023-05-09T06:47:55;14.10;83.20
75621;DHT22;64574;48.506;-2.750;2023-05-09T06:50:21;14.10;83.30
75621;DHT22;64574;48.506;-2.750;2023-05-09T06:52:46;14.10;82.90
75621;DHT22;64574;48.506;-2.750;2023-05-09T06:55:12;14.10;83.30
75621;DHT22;64574;48.506;-2.750;2023-05-09T06:57:38;14.20;83.30
75621;DHT22;64574;48.506;-2.750;2023-05-09T07:00:08;14.30;83.00
75621;DHT22;64574;48.506;-2.750;2023-05-09T07:02:34;14.30;82.80
75621;DHT22;64574;48.506;-2.750;2023-05-09T07:05:00;14.40;82.60
75621;DHT22;64574;48.506;-2.750;2023-05-09T07:07:25;14.40;82.70
75621;DHT22;64574;48.506;-2.750;2023-05-09T07:09:51;14.50;82.40
75621;DHT22;64574;48.506;-2.750;2023-05-09T07:12:17;14.40;82.10
75621;DHT22;64574;48.506;-2.750;2023-05-09T07:14:42;14.50;82.30
75621;DHT22;64574;48.506;-2.750;2023-05-09T07:17:08;14.50;81.40
75621;DHT22;64574;48.506;-2.750;2023-05-09T07:19:34;14.60;81.50
75621;DHT22;64574;48.506;-2.750;2023-05-09T07:21:59;14.60;81.50
75621;DHT22;64574;48.506;-2.750;2023-05-09T07:24:25;14.60;81.40
75621;DHT22;64574;48.506;-2.750;2023-05-09T07:26:50;14.70;81.40
75621;DHT22;64574;48.506;-2.750;2023-05-09T07:29:16;14.50;81.40
75621;DHT22;64574;48.506;-2.750;2023-05-09T07:31:43;14.60;81.50
75621;DHT22;64574;48.506;-2.750;2023-05-09T07:34:08;14.60;81.20
75621;DHT22;64574;48.506;-2.750;2023-05-09T07:36:34;14.60;81.20
75621;DHT22;64574;48.506;-2.750;2023-05-09T07:39:02;14.70;81.10
75621;DHT22;64574;48.506;-2.750;2023-05-09T07:41:29;14.70;80.60
75621;DHT22;64574;48.506;-2.750;2023-05-09T07:43:55;14.80;80.60
75621;DHT22;64574;48.506;-2.750;2023-05-09T07:46:21;15.00;80.10
75621;DHT22;64574;48.506;-2.750;2023-05-09T07:48:46;15.10;79.50
75621;DHT22;64574;48.506;-2.750;2023-05-09T07:51:12;15.00;79.30
75621;DHT22;64574;48.506;-2.750;2023-05-09T07:53:38;15.00;79.40
75621;DHT22;64574;48.506;-2.750;2023-05-09T07:56:03;15.00;79.40
75621;DHT22;64574;48.506;-2.750;2023-05-09T07:58:31;15.10;79.70
75621;DHT22;64574;48.506;-2.750;2023-05-09T08:00:56;15.00;79.70
75621;DHT22;64574;48.506;-2.750;2023-05-09T08:03:22;14.80;80.50
75621;DHT22;64574;48.506;-2.750;2023-05-09T08:05:48;14.80;81.00
75621;DHT22;64574;48.506;-2.750;2023-05-09T08:08:13;14.80;81.60
75621;DHT22;64574;48.506;-2.750;2023-05-09T08:10:39;15.00;81.80
75621;DHT22;64574;48.506;-2.750;2023-05-09T08:13:05;15.00;81.10
75621;DHT22;64574;48.506;-2.750;2023-05-09T08:15:30;15.10;81.10
75621;DHT22;64574;48.506;-2.750;2023-05-09T08:17:56;15.00;81.20
75621;DHT22;64574;48.506;-2.750;2023-05-09T08:20:21;15.00;80.70
75621;DHT22;64574;48.506;-2.750;2023-05-09T08:22:48;15.20;81.20
75621;DHT22;64574;48.506;-2.750;2023-05-09T08:25:14;15.40;81.00
75621;DHT22;64574;48.506;-2.750;2023-05-09T08:27:42;15.50;81.00
75621;DHT22;64574;48.506;-2.750;2023-05-09T08:30:08;15.50;80.10
75621;DHT22;64574;48.506;-2.750;2023-05-09T08:32:34;15.40;80.20
75621;DHT22;64574;48.506;-2.750;2023-05-09T08:35:01;15.20;79.80
75621;DHT22;64574;48.506;-2.750;2023-05-09T08:37:27;15.40;80.00
75621;DHT22;64574;48.506;-2.750;2023-05-09T08:39:53;15.50;79.30
75621;DHT22;64574;48.506;-2.750;2023-05-09T08:42:21;15.50;78.60
75621;DHT22;64574;48.506;-2.750;2023-05-09T08:44:47;15.60;78.00
75621;DHT22;64574;48.506;-2.750;2023-05-09T08:47:13;15.60;78.00
75621;DHT22;64574;48.506;-2.750;2023-05-09T08:49:40;15.50;77.80
75621;DHT22;64574;48.506;-2.750;2023-05-09T08:52:06;15.40;78.40
75621;DHT22;64574;48.506;-2.750;2023-05-09T08:54:32;15.60;77.70
75621;DHT22;64574;48.506;-2.750;2023-05-09T08:57:00;15.60;78.00
75621;DHT22;64574;48.506;-2.750;2023-05-09T08:59:25;15.60;77.80
75621;DHT22;64574;48.506;-2.750;2023-05-09T09:01:52;15.80;77.00
75621;DHT22;64574;48.506;-2.750;2023-05-09T09:04:19;15.60;77.60
75621;DHT22;64574;48.506;-2.750;2023-05-09T09:06:45;15.60;78.00
75621;DHT22;64574;48.506;-2.750;2023-05-09T09:09:12;15.50;79.10
75621;DHT22;64574;48.506;-2.750;2023-05-09T09:11:39;15.60;79.40
75621;DHT22;64574;48.506;-2.750;2023-05-09T09:14:23;15.60;79.10
75621;DHT22;64574;48.506;-2.750;2023-05-09T09:16:54;15.60;78.40
75621;DHT22;64574;48.506;-2.750;2023-05-09T09:19:21;15.50;78.20
75621;DHT22;64574;48.506;-2.750;2023-05-09T09:21:49;15.50;78.40
75621;DHT22;64574;48.506;-2.750;2023-05-09T09:24:21;15.70;78.50
75621;DHT22;64574;48.506;-2.750;2023-05-09T09:26:48;15.80;78.60
75621;DHT22;64574;48.506;-2.750;2023-05-09T09:29:15;16.00;78.30
75621;DHT22;64574;48.506;-2.750;2023-05-09T09:31:45;15.90;77.60
75621;DHT22;64574;48.506;-2.750;2023-05-09T09:34:12;16.00;77.30
75621;DHT22;64574;48.506;-2.750;2023-05-09T09:36:43;16.00;76.90
75621;DHT22;64574;48.506;-2.750;2023-05-09T09:39:13;16.10;76.80
75621;DHT22;64574;48.506;-2.750;2023-05-09T09:41:39;16.20;76.20
75621;DHT22;64574;48.506;-2.750;2023-05-09T09:44:15;16.30;76.30
75621;DHT22;64574;48.506;-2.750;2023-05-09T09:46:49;16.30;75.20
75621;DHT22;64574;48.506;-2.750;2023-05-09T09:49:23;16.40;75.00
75621;DHT22;64574;48.506;-2.750;2023-05-09T09:51:56;16.40;74.30
75621;DHT22;64574;48.506;-2.750;2023-05-09T09:54:25;16.50;74.30
75621;DHT22;64574;48.506;-2.750;2023-05-09T09:56:51;16.50;74.60
75621;DHT22;64574;48.506;-2.750;2023-05-09T09:59:23;16.60;74.00
75621;DHT22;64574;48.506;-2.750;2023-05-09T10:04:21;16.60;73.90
75621;DHT22;64574;48.506;-2.750;2023-05-09T10:07:06;16.70;73.30
75621;DHT22;64574;48.506;-2.750;2023-05-09T10:09:34;16.70;73.50
75621;DHT22;64574;48.506;-2.750;2023-05-09T10:12:04;16.60;72.60
75621;DHT22;64574;48.506;-2.750;2023-05-09T10:14:32;16.50;72.50
75621;DHT22;64574;48.506;-2.750;2023-05-09T10:17:00;16.40;72.70
75621;DHT22;64574;48.506;-2.750;2023-05-09T10:19:26;16.50;72.90
75621;DHT22;64574;48.506;-2.750;2023-05-09T10:22:04;16.60;72.70
75621;DHT22;64574;48.506;-2.750;2023-05-09T10:24:58;16.60;72.30
75621;DHT22;64574;48.506;-2.750;2023-05-09T10:27:27;16.70;72.70
75621;DHT22;64574;48.506;-2.750;2023-05-09T10:30:07;16.90;72.20
75621;DHT22;64574;48.506;-2.750;2023-05-09T10:35:25;16.80;71.50
75621;DHT22;64574;48.506;-2.750;2023-05-09T10:37:52;16.80;72.30
75621;DHT22;64574;48.506;-2.750;2023-05-09T10:40:20;16.80;71.20
75621;DHT22;64574;48.506;-2.750;2023-05-09T10:42:46;16.60;71.50
75621;DHT22;64574;48.506;-2.750;2023-05-09T10:45:12;16.40;72.30
75621;DHT22;64574;48.506;-2.750;2023-05-09T10:47:39;16.30;72.90
75621;DHT22;64574;48.506;-2.750;2023-05-09T10:50:08;16.20;73.00
75621;DHT22;64574;48.506;-2.750;2023-05-09T10:53:03;16.10;73.50
75621;DHT22;64574;48.506;-2.750;2023-05-09T10:58:30;16.00;72.60
75621;DHT22;64574;48.506;-2.750;2023-05-09T11:01:01;16.00;72.60
75621;DHT22;64574;48.506;-2.750;2023-05-09T11:03:52;16.00;72.50
75621;DHT22;64574;48.506;-2.750;2023-05-09T11:17:11;16.20;71.50
75621;DHT22;64574;48.506;-2.750;2023-05-09T11:22:19;16.40;71.30
75621;DHT22;64574;48.506;-2.750;2023-05-09T11:24:46;16.40;71.50
75621;DHT22;64574;48.506;-2.750;2023-05-09T11:27:19;16.40;70.80
75621;DHT22;64574;48.506;-2.750;2023-05-09T11:29:50;16.40;70.80
75621;DHT22;64574;48.506;-2.750;2023-05-09T11:32:17;16.30;71.80
75621;DHT22;64574;48.506;-2.750;2023-05-09T11:34:43;16.40;71.70
75621;DHT22;64574;48.506;-2.750;2023-05-09T11:37:16;16.40;71.70
75621;DHT22;64574;48.506;-2.750;2023-05-09T11:40:09;16.40;71.80
75621;DHT22;64574;48.506;-2.750;2023-05-09T11:42:41;16.40;72.00
75621;DHT22;64574;48.506;-2.750;2023-05-09T11:45:08;16.40;72.20
75621;DHT22;64574;48.506;-2.750;2023-05-09T11:47:36;16.50;72.00
75621;DHT22;64574;48.506;-2.750;2023-05-09T11:50:04;16.60;71.90
75621;DHT22;64574;48.506;-2.750;2023-05-09T11:52:31;16.60;71.00
75621;DHT22;64574;48.506;-2.750;2023-05-09T11:54:58;16.40;70.30
75621;DHT22;64574;48.506;-2.750;2023-05-09T11:57:23;16.50;71.00
75621;DHT22;64574;48.506;-2.750;2023-05-09T11:59:49;16.80;70.70
75621;DHT22;64574;48.506;-2.750;2023-05-09T12:02:15;17.00;70.70
75621;DHT22;64574;48.506;-2.750;2023-05-09T12:04:40;17.00;70.10
75621;DHT22;64574;48.506;-2.750;2023-05-09T12:07:06;17.20;69.20
75621;DHT22;64574;48.506;-2.750;2023-05-09T12:09:34;17.20;68.20
75621;DHT22;64574;48.506;-2.750;2023-05-09T12:12:12;17.10;69.10
75621;DHT22;64574;48.506;-2.750;2023-05-09T12:14:39;17.20;68.90
75621;DHT22;64574;48.506;-2.750;2023-05-09T12:17:07;17.20;68.90
75621;DHT22;64574;48.506;-2.750;2023-05-09T12:19:34;17.40;69.60
75621;DHT22;64574;48.506;-2.750;2023-05-09T12:22:02;17.50;69.10
75621;DHT22;64574;48.506;-2.750;2023-05-09T12:24:29;17.30;69.40
75621;DHT22;64574;48.506;-2.750;2023-05-09T12:26:55;17.10;69.30
75621;DHT22;64574;48.506;-2.750;2023-05-09T12:29:21;17.00;69.70
75621;DHT22;64574;48.506;-2.750;2023-05-09T12:31:48;16.90;69.40
75621;DHT22;64574;48.506;-2.750;2023-05-09T12:34:14;17.00;70.40
75621;DHT22;64574;48.506;-2.750;2023-05-09T12:36:42;17.20;69.00
75621;DHT22;64574;48.506;-2.750;2023-05-09T12:39:15;17.10;69.20
75621;DHT22;64574;48.506;-2.750;2023-05-09T12:41:49;17.10;69.20
75621;DHT22;64574;48.506;-2.750;2023-05-09T12:44:24;17.20;69.20
75621;DHT22;64574;48.506;-2.750;2023-05-09T12:49:22;17.40;69.50
75621;DHT22;64574;48.506;-2.750;2023-05-09T12:51:48;17.40;69.00
75621;DHT22;64574;48.506;-2.750;2023-05-09T12:54:19;17.50;67.70
75621;DHT22;64574;48.506;-2.750;2023-05-09T12:56:45;17.50;67.10
75621;DHT22;64574;48.506;-2.750;2023-05-09T12:59:12;17.50;67.60
75621;DHT22;64574;48.506;-2.750;2023-05-09T13:01:40;17.70;66.70
75621;DHT22;64574;48.506;-2.750;2023-05-09T13:04:06;17.80;65.30
75621;DHT22;64574;48.506;-2.750;2023-05-09T13:06:32;17.60;64.60
75621;DHT22;64574;48.506;-2.750;2023-05-09T13:09:03;17.50;64.00
75621;DHT22;64574;48.506;-2.750;2023-05-09T13:11:30;17.60;64.00
75621;DHT22;64574;48.506;-2.750;2023-05-09T13:13:56;17.70;63.80
75621;DHT22;64574;48.506;-2.750;2023-05-09T13:16:22;17.80;64.20
75621;DHT22;64574;48.506;-2.750;2023-05-09T13:18:48;17.50;64.50
75621;DHT22;64574;48.506;-2.750;2023-05-09T13:21:14;17.50;62.40
75621;DHT22;64574;48.506;-2.750;2023-05-09T13:23:39;17.50;63.00
75621;DHT22;64574;48.506;-2.750;2023-05-09T13:26:06;17.50;63.30
75621;DHT22;64574;48.506;-2.750;2023-05-09T13:28:32;17.80;62.10
75621;DHT22;64574;48.506;-2.750;2023-05-09T13:30:57;17.80;61.50
75621;DHT22;64574;48.506;-2.750;2023-05-09T13:33:24;18.00;61.10
75621;DHT22;64574;48.506;-2.750;2023-05-09T13:35:50;18.10;60.80
75621;DHT22;64574;48.506;-2.750;2023-05-09T13:38:15;18.10;60.50
75621;DHT22;64574;48.506;-2.750;2023-05-09T13:40:41;18.00;60.50
75621;DHT22;64574;48.506;-2.750;2023-05-09T13:43:06;17.80;60.90
75621;DHT22;64574;48.506;-2.750;2023-05-09T13:45:32;17.80;61.00
75621;DHT22;64574;48.506;-2.750;2023-05-09T13:47:58;17.80;61.10
75621;DHT22;64574;48.506;-2.750;2023-05-09T13:50:23;17.80;61.10
75621;DHT22;64574;48.506;-2.750;2023-05-09T13:52:49;17.80;61.00
75621;DHT22;64574;48.506;-2.750;2023-05-09T13:55:15;17.70;61.30
75621;DHT22;64574;48.506;-2.750;2023-05-09T13:57:42;17.80;61.80
75621;DHT22;64574;48.506;-2.750;2023-05-09T14:00:08;17.80;62.00
75621;DHT22;64574;48.506;-2.750;2023-05-09T14:02:34;17.80;61.90
75621;DHT22;64574;48.506;-2.750;2023-05-09T14:04:59;17.80;61.90
75621;DHT22;64574;48.506;-2.750;2023-05-09T14:07:27;17.80;62.20
75621;DHT22;64574;48.506;-2.750;2023-05-09T14:09:53;17.90;62.30
75621;DHT22;64574;48.506;-2.750;2023-05-09T14:12:18;17.80;58.30
75621;DHT22;64574;48.506;-2.750;2023-05-09T14:14:44;17.80;58.70
75621;DHT22;64574;48.506;-2.750;2023-05-09T14:17:10;17.90;58.90
75621;DHT22;64574;48.506;-2.750;2023-05-09T14:19:36;17.90;58.40
75621;DHT22;64574;48.506;-2.750;2023-05-09T14:22:02;17.80;58.70
75621;DHT22;64574;48.506;-2.750;2023-05-09T14:24:28;17.70;59.30
75621;DHT22;64574;48.506;-2.750;2023-05-09T14:26:55;17.60;59.50
75621;DHT22;64574;48.506;-2.750;2023-05-09T14:29:21;17.60;59.90
75621;DHT22;64574;48.506;-2.750;2023-05-09T14:31:47;17.50;60.50
75621;DHT22;64574;48.506;-2.750;2023-05-09T14:34:12;17.40;60.40
75621;DHT22;64574;48.506;-2.750;2023-05-09T14:36:38;17.30;61.30
75621;DHT22;64574;48.506;-2.750;2023-05-09T14:39:04;16.60;64.20
75621;DHT22;64574;48.506;-2.750;2023-05-09T14:41:30;15.00;80.10
75621;DHT22;64574;48.506;-2.750;2023-05-09T14:43:56;14.70;86.20
75621;DHT22;64574;48.506;-2.750;2023-05-09T14:46:22;14.00;86.60
75621;DHT22;64574;48.506;-2.750;2023-05-09T14:48:49;14.00;88.90
75621;DHT22;64574;48.506;-2.750;2023-05-09T14:51:16;14.20;90.00
75621;DHT22;64574;48.506;-2.750;2023-05-09T14:53:41;14.10;90.00
75621;DHT22;64574;48.506;-2.750;2023-05-09T14:56:07;14.10;90.10
75621;DHT22;64574;48.506;-2.750;2023-05-09T14:58:34;14.40;90.00
75621;DHT22;64574;48.506;-2.750;2023-05-09T15:01:00;14.60;90.20
75621;DHT22;64574;48.506;-2.750;2023-05-09T15:03:26;14.70;89.90
75621;DHT22;64574;48.506;-2.750;2023-05-09T15:05:52;14.70;90.30
75621;DHT22;64574;48.506;-2.750;2023-05-09T15:08:17;14.70;89.80
75621;DHT22;64574;48.506;-2.750;2023-05-09T15:10:43;15.00;90.60
75621;DHT22;64574;48.506;-2.750;2023-05-09T15:13:09;15.30;90.70
75621;DHT22;64574;48.506;-2.750;2023-05-09T15:15:35;15.50;90.60
75621;DHT22;64574;48.506;-2.750;2023-05-09T15:18:03;15.60;90.30
75621;DHT22;64574;48.506;-2.750;2023-05-09T15:20:29;16.00;90.30
75621;DHT22;64574;48.506;-2.750;2023-05-09T15:22:55;16.20;89.80
75621;DHT22;64574;48.506;-2.750;2023-05-09T15:25:20;16.20;86.60
75621;DHT22;64574;48.506;-2.750;2023-05-09T15:27:47;16.40;85.80
75621;DHT22;64574;48.506;-2.750;2023-05-09T15:30:15;16.80;84.40
75621;DHT22;64574;48.506;-2.750;2023-05-09T15:32:40;16.50;77.40
75621;DHT22;64574;48.506;-2.750;2023-05-09T15:35:07;16.40;77.30
75621;DHT22;64574;48.506;-2.750;2023-05-09T15:37:32;16.10;78.40
75621;DHT22;64574;48.506;-2.750;2023-05-09T15:39:59;16.20;78.40
75621;DHT22;64574;48.506;-2.750;2023-05-09T15:42:24;16.30;76.90
75621;DHT22;64574;48.506;-2.750;2023-05-09T15:44:50;16.40;74.70
75621;DHT22;64574;48.506;-2.750;2023-05-09T15:47:16;16.60;74.00